Time;durP1;ratioP1;P1;durP2;ratioP2;P2;SDS_P1;SDS_P2;PMS_P1;PMS_P2;Temp;Humidity;BMP_temperature;BMP_pressure;BME280_temperature;BME280_humidity;BME280_pressure;Samples;Min_cycle;Max_cycle;Signal;HPM_P1;HPM_P2
2022/08/12 00:44:37;;;;;;;8.93;2.50;;;;;;;;;;5055389;28;20021;-73
2022/08/12 00:47:04;;;;;;;6.38;2.13;;;;;;;;;;5053370;28;20508;-72
2022/08/12 00:49:30;;;;;;;4.60;2.38;;;;;;;;;;5054753;28;20403;-71
2022/08/12 00:52:10;;;;;;;6.47;2.42;;;;;;;;;;5054800;28;20025;-72
2022/08/12 00:54:36;;;;;;;4.65;2.28;;;;;;;;;;5054001;28;20032;-72
2022/08/12 00:57:04;;;;;;;5.72;2.47;;;;;;;;;;5053130;28;20032;-74
2022/08/12 00:59:31;;;;;;;4.75;2.17;;;;;;;;;;5053276;28;20023;-72
2022/08/12 01:01:59;;;;;;;4.30;2.40;;;;;;;;;;5037120;28;20560;-72
2022/08/12 01:12:42;;;;;;;9.15;2.58;;;;;;;;;;5056179;28;20092;-73
2022/08/12 01:15:09;;;;;;;4.78;2.30;;;;;;;;;;5055910;28;20025;-71
2022/08/12 01:17:35;;;;;;;7.47;2.85;;;;;;;;;;5055592;28;20020;-73
2022/08/12 01:20:05;;;;;;;4.78;2.38;;;;;;;;;;5045119;28;20445;-71
2022/08/12 01:22:44;;;;;;;5.28;2.50;;;;;;;;;;5057982;28;20017;-72
2022/08/12 01:25:14;;;;;;;10.23;2.30;;;;;;;;;;5058494;28;20025;-72
2022/08/12 01:27:40;;;;;;;3.72;2.40;;;;;;;;;;5068290;28;20021;-73
2022/08/12 01:30:07;;;;;;;5.50;2.60;;;;;;;;;;5068682;28;20021;-73
2022/08/12 01:32:37;;;;;;;7.25;2.50;;;;;;;;;;5066030;28;20035;-72
2022/08/12 01:35:08;;;;;;;6.35;2.58;;;;;;;;;;5056237;28;20060;-72
2022/08/12 01:37:36;;;;;;;9.63;2.83;;;;;;;;;;5055565;28;20025;-72
2022/08/12 01:40:04;;;;;;;9.10;2.63;;;;;;;;;;5039363;28;20434;-73
2022/08/12 01:42:32;;;;;;;6.22;2.60;;;;;;;;;;5052728;28;20048;-72
2022/08/12 01:45:00;;;;;;;3.67;2.08;;;;;;;;;;5051686;28;20019;-73
2022/08/12 01:47:39;;;;;;;9.65;2.65;;;;;;;;;;5053702;28;20025;-73
2022/08/12 01:50:21;;;;;;;6.28;2.40;;;;;;;;;;5050858;28;20055;-73
2022/08/12 01:52:53;;;;;;;6.50;2.85;;;;;;;;;;5050966;28;20013;-74
2022/08/12 01:55:21;;;;;;;6.43;3.00;;;;;;;;;;5049973;28;20028;-72
2022/08/12 01:57:54;;;;;;;8.68;2.53;;;;;;;;;;5051754;28;20053;-73
2022/08/12 02:00:20;;;;;;;5.78;2.65;;;;;;;;;;5027688;28;20025;-72
2022/08/12 02:02:58;;;;;;;7.18;3.55;;;;;;;;;;5050222;28;20400;-72
2022/08/12 02:11:23;;;;;;;6.30;2.65;;;;;;;;;;5051108;28;20311;-72
2022/08/12 02:14:10;;;;;;;7.30;2.65;;;;;;;;;;5050640;28;20458;-71
2022/08/12 02:16:45;;;;;;;5.65;2.70;;;;;;;;;;5050297;28;20405;-72
2022/08/12 02:19:29;;;;;;;9.75;2.95;;;;;;;;;;5051081;28;20468;-72
2022/08/12 02:22:11;;;;;;;5.57;2.80;;;;;;;;;;5051442;28;20063;-72
2022/08/12 02:24:38;;;;;;;7.32;2.50;;;;;;;;;;5050693;28;20110;-72
2022/08/12 02:27:09;;;;;;;10.10;2.70;;;;;;;;;;5049777;28;20021;-73
2022/08/12 02:29:35;;;;;;;4.72;2.58;;;;;;;;;;5050669;28;20028;-72
2022/08/12 02:32:02;;;;;;;6.88;2.70;;;;;;;;;;5050126;28;20078;-72
2022/08/12 02:34:28;;;;;;;7.15;2.75;;;;;;;;;;5050781;28;20025;-72
2022/08/12 02:36:54;;;;;;;6.20;2.90;;;;;;;;;;5054244;28;20025;-72
2022/08/12 02:39:23;;;;;;;5.47;2.63;;;;;;;;;;5057066;28;20021;-73
2022/08/12 02:41:50;;;;;;;8.38;2.90;;;;;;;;;;5054501;28;20021;-72
2022/08/12 02:44:16;;;;;;;6.85;2.80;;;;;;;;;;5036669;28;20529;-72
2022/08/12 02:46:47;;;;;;;6.95;3.10;;;;;;;;;;5053708;28;20029;-73
2022/08/12 02:49:17;;;;;;;11.73;3.63;;;;;;;;;;5055744;28;20128;-71
2022/08/12 02:51:43;;;;;;;7.82;3.47;;;;;;;;;;5054908;28;20074;-72
2022/08/12 02:54:09;;;;;;;7.82;4.22;;;;;;;;;;5036170;28;20393;-72
2022/08/12 02:56:36;;;;;;;7.65;2.80;;;;;;;;;;5055056;28;20119;-73
2022/08/12 02:59:02;;;;;;;5.50;2.60;;;;;;;;;;5054852;28;20025;-73
2022/08/12 03:01:32;;;;;;;7.97;2.60;;;;;;;;;;5055564;28;20116;-73
2022/08/12 03:04:00;;;;;;;7.50;2.97;;;;;;;;;;5056225;28;20029;-72
2022/08/12 03:06:26;;;;;;;6.75;2.92;;;;;;;;;;5054759;28;20036;-72
2022/08/12 03:08:54;;;;;;;7.70;2.90;;;;;;;;;;5054088;28;20029;-72
2022/08/12 03:11:28;;;;;;;9.07;2.88;;;;;;;;;;5053554;28;20441;-73
2022/08/12 03:13:57;;;;;;;7.90;3.00;;;;;;;;;;5053889;28;20033;-72
2022/08/12 03:16:23;;;;;;;7.63;3.13;;;;;;;;;;5053695;28;20528;-72
2022/08/12 03:18:50;;;;;;;10.73;5.68;;;;;;;;;;5054165;28;20154;-73
2022/08/12 03:21:17;;;;;;;11.38;3.75;;;;;;;;;;5054599;28;20078;-73
2022/08/12 03:23:44;;;;;;;5.95;3.22;;;;;;;;;;5054019;28;20053;-72
2022/08/12 03:26:10;;;;;;;5.22;3.13;;;;;;;;;;5053400;28;20035;-73
2022/08/12 03:28:49;;;;;;;14.05;4.53;;;;;;;;;;5054190;28;20033;-72
2022/08/12 03:31:15;;;;;;;6.72;3.00;;;;;;;;;;5053734;28;20040;-77
2022/08/12 03:33:45;;;;;;;9.38;3.40;;;;;;;;;;5053641;28;20032;-72
2022/08/12 03:36:11;;;;;;;9.55;3.53;;;;;;;;;;5052899;28;20029;-72
2022/08/12 03:38:42;;;;;;;8.18;3.85;;;;;;;;;;5054387;28;20027;-72
2022/08/12 03:41:33;;;;;;;9.57;5.65;;;;;;;;;;5056538;28;20045;-75
2022/08/12 04:00:49;;;;;;;8.00;4.78;;;;;;;;;;5062490;28;20382;-73
2022/08/12 04:06:00;;;;;;;8.68;3.70;;;;;;;;;;5053121;28;20512;-73
2022/08/12 04:08:26;;;;;;;13.20;3.55;;;;;;;;;;5053463;28;20029;-72
2022/08/12 04:13:40;;;;;;;6.00;3.50;;;;;;;;;;5096020;22;20102;-76
2022/08/12 04:16:07;;;;;;;8.48;3.95;;;;;;;;;;5073645;28;20032;-76
2022/08/12 04:18:34;;;;;;;8.80;3.92;;;;;;;;;;5073799;28;20027;-75
2022/08/12 04:21:01;;;;;;;6.28;2.95;;;;;;;;;;5076395;28;20052;-77
2022/08/12 04:23:27;;;;;;;13.18;3.78;;;;;;;;;;5079086;28;20465;-76
2022/08/12 04:25:53;;;;;;;13.65;3.25;;;;;;;;;;5080527;28;20473;-75
2022/08/12 04:28:24;;;;;;;8.88;3.47;;;;;;;;;;5081980;28;20107;-77
2022/08/12 04:30:50;;;;;;;8.38;3.15;;;;;;;;;;5084602;28;20028;-77
2022/08/12 04:33:17;;;;;;;11.40;3.83;;;;;;;;;;5081704;28;20020;-76
2022/08/12 04:35:43;;;;;;;12.02;5.28;;;;;;;;;;5076563;28;20446;-77
2022/08/12 04:38:09;;;;;;;8.95;3.88;;;;;;;;;;5074330;28;20021;-75
2022/08/12 04:40:35;;;;;;;9.32;3.95;;;;;;;;;;5076516;28;20103;-76
2022/08/12 04:43:01;;;;;;;13.00;4.38;;;;;;;;;;5077517;28;20367;-77
2022/08/12 04:45:28;;;;;;;6.10;4.10;;;;;;;;;;5072043;28;20524;-77
2022/08/12 04:47:54;;;;;;;11.05;3.70;;;;;;;;;;5074683;28;20047;-77
2022/08/12 04:50:20;;;;;;;9.05;3.35;;;;;;;;;;5075221;28;20032;-76
2022/08/12 04:52:46;;;;;;;11.80;5.10;;;;;;;;;;5075264;28;20348;-77
2022/08/12 04:55:12;;;;;;;9.07;4.10;;;;;;;;;;5073023;28;20059;-76
2022/08/12 04:57:38;;;;;;;11.80;5.38;;;;;;;;;;5073090;28;20109;-76
2022/08/12 05:00:11;;;;;;;9.38;4.20;;;;;;;;;;5073055;28;20028;-75
2022/08/12 05:02:38;;;;;;;8.40;3.78;;;;;;;;;;5074174;28;20067;-75
2022/08/12 05:05:05;;;;;;;6.68;3.90;;;;;;;;;;5078922;28;20055;-76
2022/08/12 05:07:32;;;;;;;8.65;3.92;;;;;;;;;;5075661;28;20084;-77
2022/08/12 05:09:58;;;;;;;12.10;3.70;;;;;;;;;;5075830;28;20020;-77
2022/08/12 05:12:24;;;;;;;8.15;5.05;;;;;;;;;;5073117;28;20059;-76
2022/08/12 05:14:50;;;;;;;10.77;4.00;;;;;;;;;;5073544;28;20480;-76
2022/08/12 05:17:16;;;;;;;8.68;3.67;;;;;;;;;;5075198;28;20509;-75
2022/08/12 05:19:42;;;;;;;10.75;3.70;;;;;;;;;;5075319;28;20101;-80
2022/08/12 05:22:09;;;;;;;7.78;3.45;;;;;;;;;;5074704;28;20012;-76
2022/08/12 05:24:35;;;;;;;8.45;3.42;;;;;;;;;;5077040;28;20021;-78
2022/08/12 05:27:01;;;;;;;13.05;3.40;;;;;;;;;;5078706;28;20028;-76
2022/08/12 05:29:30;;;;;;;7.80;3.55;;;;;;;;;;5075509;28;20032;-76
2022/08/12 05:31:57;;;;;;;15.88;3.65;;;;;;;;;;5077283;28;20059;-77
2022/08/12 05:34:24;;;;;;;13.00;5.30;;;;;;;;;;5081344;28;20027;-76
2022/08/12 05:36:50;;;;;;;14.10;6.03;;;;;;;;;;5078674;28;20038;-77
2022/08/12 05:39:16;;;;;;;10.07;4.28;;;;;;;;;;5076226;28;20020;-78
2022/08/12 05:41:43;;;;;;;6.97;4.22;;;;;;;;;;5075549;28;20035;-75
2022/08/12 05:44:15;;;;;;;9.93;4.35;;;;;;;;;;5076571;28;20017;-76
2022/08/12 05:46:41;;;;;;;8.30;3.22;;;;;;;;;;5077994;28;20040;-76
2022/08/12 05:49:07;;;;;;;6.93;3.20;;;;;;;;;;5082177;28;20032;-76
2022/08/12 05:51:34;;;;;;;9.13;4.80;;;;;;;;;;5080171;28;20036;-77
2022/08/12 05:54:00;;;;;;;7.70;4.10;;;;;;;;;;5078978;28;20028;-77
2022/08/12 05:56:28;;;;;;;7.55;3.53;;;;;;;;;;5079279;28;20039;-76
2022/08/12 05:58:55;;;;;;;6.80;3.10;;;;;;;;;;5083421;28;20112;-76
2022/08/12 06:01:22;;;;;;;8.07;3.35;;;;;;;;;;5077777;28;20050;-74
2022/08/12 06:03:48;;;;;;;7.30;3.30;;;;;;;;;;5076961;28;20629;-76
2022/08/12 06:06:15;;;;;;;10.68;3.35;;;;;;;;;;5087353;28;20034;-76
2022/08/12 06:08:44;;;;;;;8.38;3.33;;;;;;;;;;5085413;28;20119;-76
2022/08/12 06:11:10;;;;;;;21.75;12.48;;;;;;;;;;5062010;28;20079;-75
2022/08/12 06:13:38;;;;;;;13.77;8.32;;;;;;;;;;5075873;28;20036;-76
2022/08/12 06:16:06;;;;;;;12.90;6.93;;;;;;;;;;5078168;28;20032;-76
2022/08/12 06:18:32;;;;;;;13.15;6.47;;;;;;;;;;5074659;28;20032;-77
2022/08/12 06:20:58;;;;;;;12.75;5.40;;;;;;;;;;5078152;28;20075;-75
2022/08/12 06:23:27;;;;;;;11.25;3.65;;;;;;;;;;5077053;28;20025;-77
2022/08/12 06:25:54;;;;;;;11.02;4.68;;;;;;;;;;5076372;28;20024;-77
2022/08/12 06:28:21;;;;;;;15.15;3.90;;;;;;;;;;5076951;28;20025;-76
2022/08/12 06:30:47;;;;;;;11.13;4.15;;;;;;;;;;5083856;28;20053;-76
2022/08/12 06:33:14;;;;;;;15.77;3.00;;;;;;;;;;5075862;28;20028;-75
2022/08/12 06:35:40;;;;;;;11.45;3.17;;;;;;;;;;5073125;28;20029;-76
2022/08/12 06:38:14;;;;;;;11.70;4.65;;;;;;;;;;5075776;28;20025;-76
2022/08/12 06:43:25;;;;;;;6.18;2.92;;;;;;;;;;5074824;28;20035;-76
2022/08/12 06:45:52;;;;;;;5.63;3.13;;;;;;;;;;5072461;28;20021;-76
2022/08/12 06:48:18;;;;;;;8.18;3.40;;;;;;;;;;5073113;28;20032;-76
2022/08/12 06:50:44;;;;;;;6.70;2.95;;;;;;;;;;5074023;28;20028;-75
2022/08/12 06:53:10;;;;;;;7.75;2.88;;;;;;;;;;5080796;28;20028;-75
2022/08/12 06:55:38;;;;;;;10.90;3.50;;;;;;;;;;5076820;28;20492;-77
2022/08/12 06:58:04;;;;;;;8.55;3.60;;;;;;;;;;5074722;28;20024;-75
2022/08/12 07:00:35;;;;;;;11.73;3.10;;;;;;;;;;5074167;28;20073;-76
2022/08/12 07:03:02;;;;;;;8.25;3.20;;;;;;;;;;5073580;28;20035;-77
2022/08/12 07:05:28;;;;;;;14.13;3.67;;;;;;;;;;5072307;28;20123;-77
2022/08/12 07:07:57;;;;;;;11.02;3.05;;;;;;;;;;5074444;28;20025;-76
2022/08/12 07:10:23;;;;;;;8.02;3.47;;;;;;;;;;5073217;28;20408;-77
2022/08/12 07:12:53;;;;;;;10.43;3.67;;;;;;;;;;5075301;28;20087;-77
2022/08/12 07:15:24;;;;;;;10.25;4.05;;;;;;;;;;5072676;28;20017;-76
2022/08/12 07:18:27;;;;;;;11.13;3.28;;;;;;;;;;5074549;28;20017;-78
2022/08/12 07:20:49;;;;;;;8.90;3.03;;;;;;;;;;5070210;28;20082;-76
2022/08/12 07:23:16;;;;;;;8.35;3.33;;;;;;;;;;5076702;28;20047;-75
2022/08/12 07:25:42;;;;;;;14.65;3.05;;;;;;;;;;5081078;28;20035;-75
2022/08/12 07:28:10;;;;;;;12.05;3.22;;;;;;;;;;5082548;28;20025;-76
2022/08/12 07:30:38;;;;;;;16.75;3.50;;;;;;;;;;5078035;28;20032;-74
2022/08/12 07:33:07;;;;;;;12.15;3.65;;;;;;;;;;5078535;28;20041;-79
2022/08/12 07:35:34;;;;;;;9.82;3.15;;;;;;;;;;5077267;28;20086;-76
2022/08/12 07:38:00;;;;;;;9.98;3.45;;;;;;;;;;5077503;28;20090;-77
2022/08/12 07:40:28;;;;;;;10.75;3.03;;;;;;;;;;5080534;28;20118;-78
2022/08/12 07:42:54;;;;;;;9.60;3.05;;;;;;;;;;5079558;28;20100;-77
2022/08/12 07:45:20;;;;;;;4.93;3.00;;;;;;;;;;5075337;28;20064;-77
2022/08/12 07:47:47;;;;;;;12.95;4.63;;;;;;;;;;5076233;28;20290;-77
2022/08/12 07:50:14;;;;;;;11.90;3.47;;;;;;;;;;5078301;28;20024;-76
2022/08/12 07:52:42;;;;;;;16.08;3.17;;;;;;;;;;5077882;28;20070;-76
2022/08/12 07:55:08;;;;;;;9.60;3.17;;;;;;;;;;5078187;28;20033;-76
2022/08/12 07:57:34;;;;;;;9.80;2.83;;;;;;;;;;5081522;28;20077;-77
2022/08/12 08:00:05;;;;;;;8.32;3.03;;;;;;;;;;5084995;28;20029;-76
2022/08/12 08:02:35;;;;;;;5.68;2.72;;;;;;;;;;5080870;28;20311;-77
2022/08/12 08:05:01;;;;;;;6.93;3.00;;;;;;;;;;5079626;28;20016;-77
2022/08/12 08:07:28;;;;;;;9.77;2.92;;;;;;;;;;5075359;28;20021;-77
2022/08/12 08:09:57;;;;;;;8.65;3.15;;;;;;;;;;5081232;28;20032;-77
2022/08/12 08:15:09;;;;;;;14.73;2.83;;;;;;;;;;5091290;28;20512;-79
2022/08/12 08:17:36;;;;;;;5.72;2.90;;;;;;;;;;5076739;28;20043;-76
2022/08/12 08:20:03;;;;;;;8.88;3.08;;;;;;;;;;5082222;28;20033;-76
2022/08/12 08:22:29;;;;;;;10.00;2.85;;;;;;;;;;5082221;28;20066;-76
2022/08/12 08:24:57;;;;;;;6.20;3.20;;;;;;;;;;5082713;28;20029;-77
2022/08/12 08:27:23;;;;;;;6.55;2.60;;;;;;;;;;5077673;28;20016;-76
2022/08/12 08:29:49;;;;;;;8.07;2.72;;;;;;;;;;5076277;28;20078;-76
2022/08/12 08:32:15;;;;;;;5.95;2.88;;;;;;;;;;5076603;28;20020;-76
2022/08/12 08:34:44;;;;;;;8.38;2.50;;;;;;;;;;5079566;28;20021;-77
2022/08/12 08:37:13;;;;;;;6.85;2.90;;;;;;;;;;5080657;28;20044;-75
2022/08/12 08:39:40;;;;;;;10.20;2.80;;;;;;;;;;5080843;28;20415;-76
2022/08/12 08:45:11;;;;;;;12.02;4.60;;;;;;;;;;5032305;28;20048;-76
2022/08/12 08:47:47;;;;;;;11.55;4.95;;;;;;;;;;5066787;28;20124;-77
2022/08/12 08:50:14;;;;;;;11.60;3.28;;;;;;;;;;5076155;28;20043;-77
2022/08/12 08:52:40;;;;;;;10.35;5.80;;;;;;;;;;5078090;28;20028;-77
2022/08/12 08:55:06;;;;;;;8.93;3.38;;;;;;;;;;5075020;28;20021;-78
2022/08/12 08:57:32;;;;;;;11.73;3.13;;;;;;;;;;5075037;28;20552;-76
2022/08/12 08:59:59;;;;;;;8.23;4.05;;;;;;;;;;5075514;28;20025;-77
2022/08/12 09:02:24;;;;;;;8.65;2.63;;;;;;;;;;5076739;28;20469;-78
2022/08/12 09:04:50;;;;;;;7.60;2.53;;;;;;;;;;5078147;28;20050;-77
2022/08/12 09:07:17;;;;;;;7.47;2.70;;;;;;;;;;5087157;28;20081;-77
2022/08/12 09:09:43;;;;;;;9.70;2.90;;;;;;;;;;5078495;28;20078;-77
2022/08/12 09:14:54;;;;;;;12.93;2.75;;;;;;;;;;5072131;28;20512;-76
2022/08/12 09:17:21;;;;;;;9.10;2.40;;;;;;;;;;5071167;28;20108;-75
2022/08/12 09:19:46;;;;;;;8.27;2.63;;;;;;;;;;5072317;28;20668;-76
2022/08/12 09:22:12;;;;;;;6.80;2.50;;;;;;;;;;5071744;28;20035;-75
2022/08/12 09:24:39;;;;;;;9.32;4.82;;;;;;;;;;5070900;28;20055;-75
2022/08/12 09:27:07;;;;;;;15.20;3.35;;;;;;;;;;5071145;28;20106;-76
2022/08/12 09:29:33;;;;;;;10.40;2.72;;;;;;;;;;5075148;28;20396;-76
2022/08/12 09:32:00;;;;;;;11.25;2.58;;;;;;;;;;5072435;28;20028;-76
2022/08/12 09:34:28;;;;;;;13.07;2.53;;;;;;;;;;5073098;28;20024;-77
2022/08/12 09:36:54;;;;;;;16.00;2.40;;;;;;;;;;5071511;28;20017;-76
2022/08/12 09:39:20;;;;;;;12.00;2.97;;;;;;;;;;5073250;28;20020;-76
2022/08/12 09:45:19;;;;;;;5.63;2.45;;;;;;;;;;5074862;28;20016;-77
2022/08/12 09:47:21;;;;;;;6.20;2.45;;;;;;;;;;5075247;28;20490;-77
2022/08/12 09:49:48;;;;;;;8.00;2.30;;;;;;;;;;5076551;28;20016;-77
2022/08/12 09:52:14;;;;;;;5.43;2.70;;;;;;;;;;5074252;28;20024;-76
2022/08/12 09:54:40;;;;;;;13.45;2.65;;;;;;;;;;5072639;28;20027;-77
2022/08/12 09:57:07;;;;;;;7.45;2.60;;;;;;;;;;5071903;28;20032;-77
2022/08/12 09:59:34;;;;;;;6.80;2.90;;;;;;;;;;5073838;28;20024;-77
2022/08/12 10:02:00;;;;;;;9.30;2.50;;;;;;;;;;5074604;28;20108;-76
2022/08/12 10:04:26;;;;;;;4.20;2.85;;;;;;;;;;5071821;28;20392;-77
2022/08/12 10:06:52;;;;;;;11.18;2.67;;;;;;;;;;5072178;28;20031;-76
2022/08/12 10:09:18;;;;;;;10.68;4.85;;;;;;;;;;5074301;28;20024;-77
2022/08/12 10:14:28;;;;;;;;;;;;;;;;;;5085215;28;20085;-75
2022/08/12 10:16:54;;;;;;;5.55;2.38;;;;;;;;;;5081292;28;20011;-78
2022/08/12 10:19:21;;;;;;;4.70;2.90;;;;;;;;;;5078028;28;20036;-76
2022/08/12 10:21:47;;;;;;;7.63;2.65;;;;;;;;;;5077074;28;20016;-78
2022/08/12 10:24:15;;;;;;;9.02;2.50;;;;;;;;;;5074199;28;20442;-76
2022/08/12 10:29:37;;;;;;;6.97;2.63;;;;;;;;;;5070053;28;20031;-75
2022/08/12 10:32:05;;;;;;;8.55;2.47;;;;;;;;;;5071892;28;20366;-77
2022/08/12 10:34:31;;;;;;;8.73;3.72;;;;;;;;;;5075928;28;20029;-77
2022/08/12 10:37:00;;;;;;;9.57;2.58;;;;;;;;;;5079045;28;20028;-76
2022/08/12 10:39:31;;;;;;;20.70;3.95;;;;;;;;;;5082419;28;20040;-76
2022/08/12 10:44:45;;;;;;;6.78;3.25;;;;;;;;;;5074432;28;20058;-76
2022/08/12 10:47:11;;;;;;;9.93;2.40;;;;;;;;;;5077714;28;20101;-73
2022/08/12 10:49:37;;;;;;;8.45;2.30;;;;;;;;;;5080876;28;20059;-77
2022/08/12 10:52:04;;;;;;;16.33;2.63;;;;;;;;;;5076831;28;20025;-77
2022/08/12 10:54:30;;;;;;;11.05;2.10;;;;;;;;;;5079669;28;20092;-75
2022/08/12 10:56:56;;;;;;;7.95;2.22;;;;;;;;;;5065397;28;20032;-79
2022/08/12 10:59:28;;;;;;;14.43;2.75;;;;;;;;;;5076397;28;20031;-78
2022/08/12 11:01:55;;;;;;;8.70;2.00;;;;;;;;;;5074925;28;20005;-75
2022/08/12 11:04:21;;;;;;;5.30;2.03;;;;;;;;;;5077525;28;20688;-76
2022/08/12 11:06:47;;;;;;;7.15;2.13;;;;;;;;;;5077417;28;20029;-75
2022/08/12 11:09:17;;;;;;;12.48;2.67;;;;;;;;;;5083232;28;20017;-77
2022/08/12 11:11:47;;;;;;;11.85;5.18;;;;;;;;;;5077431;28;20023;-78
2022/08/12 11:14:16;;;;;;;7.00;2.47;;;;;;;;;;5076853;28;20441;-77
2022/08/12 11:16:42;;;;;;;8.10;2.58;;;;;;;;;;5076434;28;20103;-77
2022/08/12 11:19:08;;;;;;;4.95;2.30;;;;;;;;;;5081608;28;20098;-76
2022/08/12 11:21:34;;;;;;;13.48;2.72;;;;;;;;;;5079565;28;20048;-77
2022/08/12 11:24:00;;;;;;;8.50;2.03;;;;;;;;;;5080355;28;20103;-78
2022/08/12 11:26:26;;;;;;;13.50;2.53;;;;;;;;;;5075839;28;20029;-78
2022/08/12 11:28:52;;;;;;;4.90;2.08;;;;;;;;;;5074278;28;20017;-77
2022/08/12 11:31:18;;;;;;;10.10;2.70;;;;;;;;;;5071928;28;20107;-77
2022/08/12 11:33:44;;;;;;;3.00;2.00;;;;;;;;;;5074876;28;20004;-76
2022/08/12 11:36:10;;;;;;;11.02;2.05;;;;;;;;;;5076951;28;20108;-77
2022/08/12 11:38:36;;;;;;;10.60;2.45;;;;;;;;;;5083527;28;20020;-79
2022/08/12 11:41:03;;;;;;;9.15;2.28;;;;;;;;;;5077563;28;20032;-78
2022/08/12 11:43:29;;;;;;;6.13;2.28;;;;;;;;;;5075115;28;20469;-77
2022/08/12 11:45:56;;;;;;;8.27;1.90;;;;;;;;;;5087733;28;20031;-75
2022/08/12 11:48:22;;;;;;;5.53;2.22;;;;;;;;;;5092350;28;20029;-74
2022/08/12 11:50:48;;;;;;;5.25;2.20;;;;;;;;;;5092238;28;20013;-77
2022/08/12 11:53:14;;;;;;;5.88;2.13;;;;;;;;;;5077463;28;20492;-77
2022/08/12 11:55:40;;;;;;;10.10;2.05;;;;;;;;;;5077287;28;20024;-77
2022/08/12 11:58:06;;;;;;;6.30;2.03;;;;;;;;;;5078628;28;20102;-78
2022/08/12 12:00:32;;;;;;;9.18;2.90;;;;;;;;;;5078057;28;20064;-77
2022/08/12 12:02:58;;;;;;;8.30;2.72;;;;;;;;;;5077485;28;20038;-77
2022/08/12 12:05:24;;;;;;;11.35;2.50;;;;;;;;;;5078533;28;20024;-77
2022/08/12 12:07:50;;;;;;;3.47;1.80;;;;;;;;;;5080733;28;20021;-77
2022/08/12 12:10:18;;;;;;;6.53;4.28;;;;;;;;;;5083094;28;20040;-77
2022/08/12 12:12:44;;;;;;;9.65;2.35;;;;;;;;;;5084683;28;20041;-77
2022/08/12 12:15:10;;;;;;;6.70;2.28;;;;;;;;;;5076544;28;20447;-77
2022/08/12 12:17:38;;;;;;;5.50;2.20;;;;;;;;;;5077233;28;20039;-76
2022/08/12 12:20:08;;;;;;;7.07;2.00;;;;;;;;;;5075964;28;20385;-76
2022/08/12 12:22:34;;;;;;;8.55;2.00;;;;;;;;;;5075809;28;20021;-77
2022/08/12 12:25:01;;;;;;;5.65;2.40;;;;;;;;;;5076871;28;20079;-76
2022/08/12 12:27:27;;;;;;;4.57;2.15;;;;;;;;;;5075804;28;20020;-77
2022/08/12 12:29:55;;;;;;;11.80;4.35;;;;;;;;;;5076575;28;20159;-77
2022/08/12 12:32:21;;;;;;;11.35;2.38;;;;;;;;;;5077733;28;20056;-77
2022/08/12 12:34:47;;;;;;;5.88;2.47;;;;;;;;;;5083314;28;20035;-77
2022/08/12 12:37:14;;;;;;;6.90;1.92;;;;;;;;;;5084640;28;20035;-75
2022/08/12 12:39:40;;;;;;;6.25;2.53;;;;;;;;;;5080952;28;20025;-76
2022/08/12 12:42:06;;;;;;;7.00;2.33;;;;;;;;;;5073732;28;20086;-77
2022/08/12 12:44:32;;;;;;;9.77;2.70;;;;;;;;;;5077112;28;20040;-76
2022/08/12 12:46:58;;;;;;;8.43;3.38;;;;;;;;;;5074656;28;20031;-75
2022/08/12 12:49:24;;;;;;;7.05;2.83;;;;;;;;;;5076297;28;20107;-75
2022/08/12 12:51:50;;;;;;;6.57;2.42;;;;;;;;;;5080889;28;20035;-77
2022/08/12 12:54:16;;;;;;;11.57;3.67;;;;;;;;;;5079017;28;20036;-77
2022/08/12 12:56:43;;;;;;;9.43;2.50;;;;;;;;;;5080064;28;20032;-76
2022/08/12 12:59:09;;;;;;;2.97;2.00;;;;;;;;;;5076208;28;20027;-76
2022/08/12 13:01:37;;;;;;;9.52;2.28;;;;;;;;;;5078838;28;20024;-78
2022/08/12 13:04:06;;;;;;;5.65;1.60;;;;;;;;;;5077530;28;20040;-77
2022/08/12 13:06:32;;;;;;;8.98;1.80;;;;;;;;;;5074752;28;20029;-77
2022/08/12 13:08:59;;;;;;;8.80;1.85;;;;;;;;;;5074766;28;20027;-75
2022/08/12 13:11:28;;;;;;;7.97;2.00;;;;;;;;;;5078277;28;20020;-79
2022/08/12 13:13:55;;;;;;;4.45;2.53;;;;;;;;;;5075840;28;20152;-76
2022/08/12 13:16:21;;;;;;;13.45;1.98;;;;;;;;;;5077619;28;20048;-76
2022/08/12 13:18:51;;;;;;;7.18;2.00;;;;;;;;;;5082690;28;20477;-75
2022/08/12 13:21:18;;;;;;;4.82;2.20;;;;;;;;;;5079148;28;20082;-76
2022/08/12 13:23:45;;;;;;;8.25;2.00;;;;;;;;;;5075687;28;20096;-77
2022/08/12 13:26:16;;;;;;;9.40;1.85;;;;;;;;;;5077017;28;20024;-76
2022/08/12 13:28:44;;;;;;;11.32;2.50;;;;;;;;;;5081076;28;20020;-77
2022/08/12 13:31:10;;;;;;;6.45;2.05;;;;;;;;;;5077431;28;20024;-76
2022/08/12 13:33:36;;;;;;;5.32;2.33;;;;;;;;;;5078970;28;20033;-77
2022/08/12 13:36:03;;;;;;;8.25;2.33;;;;;;;;;;5078820;28;20036;-77
2022/08/12 13:38:38;;;;;;;8.63;2.70;;;;;;;;;;5077973;28;20052;-77
2022/08/12 13:41:05;;;;;;;13.13;1.92;;;;;;;;;;5078815;28;20025;-76
2022/08/12 13:43:32;;;;;;;11.18;2.78;;;;;;;;;;5077585;28;20028;-78
2022/08/12 13:45:58;;;;;;;10.48;2.97;;;;;;;;;;5076014;28;20016;-75
2022/08/12 13:48:24;;;;;;;7.97;1.90;;;;;;;;;;5078841;28;20477;-77
2022/08/12 13:50:51;;;;;;;5.28;2.25;;;;;;;;;;5077321;28;20013;-76
2022/08/12 13:53:18;;;;;;;3.55;1.98;;;;;;;;;;5076440;28;20028;-77
2022/08/12 13:55:46;;;;;;;4.15;1.73;;;;;;;;;;5076266;28;20498;-77
2022/08/12 13:58:15;;;;;;;6.07;2.42;;;;;;;;;;5077924;28;20017;-76
2022/08/12 14:00:42;;;;;;;6.38;2.10;;;;;;;;;;5079022;28;20032;-77
2022/08/12 14:03:08;;;;;;;8.38;2.67;;;;;;;;;;5081977;28;20036;-76
2022/08/12 14:05:34;;;;;;;11.23;3.25;;;;;;;;;;5079595;28;20025;-77
2022/08/12 14:08:02;;;;;;;6.93;2.35;;;;;;;;;;5080299;28;20084;-76
2022/08/12 14:10:35;;;;;;;10.68;2.97;;;;;;;;;;5080290;28;20024;-77
2022/08/12 14:13:15;;;;;;;5.00;2.45;;;;;;;;;;5078091;28;20025;-76
2022/08/12 14:15:43;;;;;;;10.48;5.95;;;;;;;;;;5077998;28;20025;-76
2022/08/12 14:18:16;;;;;;;6.18;2.42;;;;;;;;;;5078983;28;20442;-77
2022/08/12 14:20:43;;;;;;;6.50;3.55;;;;;;;;;;5077550;28;20107;-77
2022/08/12 14:23:10;;;;;;;8.77;4.72;;;;;;;;;;5078546;28;20051;-77
2022/08/12 14:25:38;;;;;;;12.05;3.80;;;;;;;;;;5077157;28;20038;-76
2022/08/12 14:28:10;;;;;;;7.72;3.15;;;;;;;;;;5077510;28;20025;-76
2022/08/12 14:30:36;;;;;;;12.82;2.05;;;;;;;;;;5084054;28;20042;-76
2022/08/12 14:33:02;;;;;;;6.03;2.45;;;;;;;;;;5087473;28;20036;-77
2022/08/12 14:35:28;;;;;;;4.53;2.20;;;;;;;;;;5084423;28;20025;-77
2022/08/12 14:37:54;;;;;;;6.72;1.92;;;;;;;;;;5079460;28;20481;-78
2022/08/12 14:40:20;;;;;;;2.80;1.70;;;;;;;;;;5082383;28;20043;-78
2022/08/12 14:42:46;;;;;;;9.02;4.10;;;;;;;;;;5077832;28;20055;-78
2022/08/12 14:45:12;;;;;;;6.15;2.70;;;;;;;;;;5078751;28;20103;-76
2022/08/12 14:47:46;;;;;;;5.25;2.55;;;;;;;;;;5077351;28;20089;-79
2022/08/12 14:50:12;;;;;;;14.35;2.40;;;;;;;;;;5080022;28;20028;-80
2022/08/12 14:52:42;;;;;;;10.68;2.50;;;;;;;;;;5080658;28;20024;-77
2022/08/12 14:55:08;;;;;;;3.33;1.90;;;;;;;;;;5078932;28;20070;-75
2022/08/12 14:57:48;;;;;;;6.68;2.08;;;;;;;;;;5078877;28;20028;-78
2022/08/12 15:03:02;;;;;;;10.15;3.58;;;;;;;;;;5079732;28;20054;-76
2022/08/12 15:05:33;;;;;;;4.55;2.00;;;;;;;;;;5085054;28;20478;-77
2022/08/12 15:07:59;;;;;;;11.10;2.13;;;;;;;;;;5077889;28;20031;-76
2022/08/12 15:10:25;;;;;;;4.18;1.80;;;;;;;;;;5084819;28;20026;-76
2022/08/12 15:12:51;;;;;;;7.35;2.08;;;;;;;;;;5084441;28;20381;-76
2022/08/12 15:15:18;;;;;;;7.93;1.70;;;;;;;;;;5084324;28;20128;-76
2022/08/12 15:17:44;;;;;;;8.05;1.95;;;;;;;;;;5079903;28;20062;-76
2022/08/12 15:20:11;;;;;;;6.25;2.03;;;;;;;;;;5077769;28;20040;-76
2022/08/12 15:22:37;;;;;;;12.35;2.08;;;;;;;;;;5079450;28;20056;-77
2022/08/12 15:25:04;;;;;;;5.40;2.00;;;;;;;;;;5080624;28;20013;-77
2022/08/12 15:27:31;;;;;;;3.38;1.98;;;;;;;;;;5085137;28;20013;-77
2022/08/12 15:29:57;;;;;;;6.57;1.90;;;;;;;;;;5078538;28;20071;-77
2022/08/12 15:32:23;;;;;;;8.07;1.98;;;;;;;;;;5080658;28;20548;-76
2022/08/12 15:34:49;;;;;;;7.57;2.08;;;;;;;;;;5077389;28;20024;-75
2022/08/12 15:37:16;;;;;;;9.55;2.50;;;;;;;;;;5076288;28;20029;-76
2022/08/12 15:39:42;;;;;;;11.95;2.45;;;;;;;;;;5079101;28;20103;-77
2022/08/12 15:42:08;;;;;;;5.95;2.67;;;;;;;;;;5077773;28;20367;-77
2022/08/12 15:44:35;;;;;;;8.18;2.80;;;;;;;;;;5079742;28;20469;-77
2022/08/12 15:47:01;;;;;;;8.10;2.72;;;;;;;;;;5076847;28;20031;-77
2022/08/12 15:49:27;;;;;;;7.47;3.05;;;;;;;;;;5073730;28;20025;-77
2022/08/12 15:51:53;;;;;;;6.70;2.40;;;;;;;;;;5076708;28;20059;-76
2022/08/12 15:54:19;;;;;;;13.65;2.63;;;;;;;;;;5081355;28;20043;-76
2022/08/12 15:56:47;;;;;;;11.57;3.83;;;;;;;;;;5082764;28;20024;-77
2022/08/12 15:59:14;;;;;;;6.15;3.17;;;;;;;;;;5077697;28;20381;-77
2022/08/12 16:01:40;;;;;;;5.60;2.00;;;;;;;;;;5081785;28;20535;-78
2022/08/12 16:04:07;;;;;;;4.20;2.10;;;;;;;;;;5091956;28;20017;-76
2022/08/12 16:06:33;;;;;;;6.28;2.25;;;;;;;;;;5093804;28;20040;-76
2022/08/12 16:08:59;;;;;;;6.10;1.83;;;;;;;;;;5086106;28;20041;-77
2022/08/12 16:11:25;;;;;;;6.90;2.42;;;;;;;;;;5083069;28;20028;-76
2022/08/12 16:13:52;;;;;;;13.38;2.20;;;;;;;;;;5082839;28;20472;-76
2022/08/12 16:16:18;;;;;;;4.43;2.00;;;;;;;;;;5082082;28;20085;-78
2022/08/12 16:18:44;;;;;;;10.60;3.58;;;;;;;;;;5085366;28;20032;-78
2022/08/12 16:21:10;;;;;;;13.35;4.80;;;;;;;;;;5080281;28;20071;-80
2022/08/12 16:23:36;;;;;;;12.60;3.80;;;;;;;;;;5078297;28;20024;-75
2022/08/12 16:26:03;;;;;;;19.95;3.53;;;;;;;;;;5077173;28;20107;-77